createdAt,value
2022-08-30T00:00:03.112Z,3.22
2022-08-30T00:02:35.967Z,3.17
2022-08-30T00:05:06.893Z,3.35
2022-08-30T00:07:37.314Z,3.08
2022-08-30T00:10:08.466Z,3.50
2022-08-30T00:12:39.456Z,3.37
2022-08-30T00:15:11.053Z,3.30
2022-08-30T00:17:43.590Z,3.30
2022-08-30T00:20:18.219Z,3.45
2022-08-30T00:22:49.401Z,3.50
2022-08-30T00:25:20.631Z,3.30
2022-08-30T00:27:51.202Z,3.37
2022-08-30T00:30:22.416Z,3.35
2022-08-30T00:32:54.016Z,3.42
2022-08-30T00:35:25.121Z,3.85
2022-08-30T00:37:57.210Z,3.35
2022-08-30T00:40:28.861Z,3.52
2022-08-30T00:43:05.790Z,3.45
2022-08-30T00:45:36.425Z,3.65
2022-08-30T00:48:07.974Z,3.70
2022-08-30T00:50:41.337Z,3.50
2022-08-30T00:53:14.683Z,3.40
2022-08-30T00:55:45.688Z,3.80
2022-08-30T00:58:20.814Z,3.77
2022-08-30T01:00:54.378Z,3.90
2022-08-30T01:03:25.305Z,3.75
2022-08-30T01:05:56.999Z,3.87
2022-08-30T01:08:28.854Z,3.95
2022-08-30T01:11:00.306Z,3.98
2022-08-30T01:13:32.160Z,4.12
2022-08-30T01:16:03.431Z,4.22
2022-08-30T01:18:34.244Z,4.10
2022-08-30T01:21:24.545Z,4.80
2022-08-30T01:23:57.597Z,4.65
2022-08-30T01:26:30.790Z,4.60
2022-08-30T01:29:07.628Z,4.95
2022-08-30T01:31:38.076Z,4.60
2022-08-30T01:34:08.976Z,4.97
2022-08-30T01:36:44.885Z,4.83
2022-08-30T01:39:16.987Z,4.65
2022-08-30T01:41:48.042Z,4.83
2022-08-30T01:44:18.583Z,5.50
2022-08-30T01:46:49.137Z,4.70
2022-08-30T01:49:27.428Z,4.87
2022-08-30T01:52:00.254Z,5.40
2022-08-30T01:54:24.866Z,5.67
2022-08-30T01:56:57.074Z,4.70
2022-08-30T01:59:27.660Z,5.05
2022-08-30T02:01:58.086Z,4.87
2022-08-30T02:04:28.525Z,5.50
2022-08-30T02:06:59.040Z,5.42
2022-08-30T02:09:29.448Z,5.47
2022-08-30T02:11:59.795Z,5.58
2022-08-30T02:14:30.212Z,5.70
2022-08-30T02:17:01.608Z,4.90
2022-08-30T02:19:32.173Z,5.12
2022-08-30T02:22:02.854Z,5.40
2022-08-30T02:24:33.895Z,4.83
2022-08-30T02:27:04.660Z,5.30
2022-08-30T02:29:36.570Z,5.62
2022-08-30T02:32:07.148Z,5.75
2022-08-30T02:34:37.656Z,5.15
2022-08-30T02:37:09.066Z,5.70
2022-08-30T02:39:39.613Z,5.95
2022-08-30T02:42:09.944Z,5.67
2022-08-30T02:44:40.312Z,5.90
2022-08-30T02:47:10.646Z,6.03
2022-08-30T02:49:41.103Z,5.58
2022-08-30T02:52:11.530Z,6.08
2022-08-30T02:54:41.965Z,6.08
2022-08-30T02:57:19.996Z,6.35
2022-08-30T02:59:47.385Z,6.33
2022-08-30T03:02:17.964Z,6.08
2022-08-30T03:04:48.971Z,6.03
2022-08-30T03:07:19.644Z,5.70
2022-08-30T03:09:50.026Z,6.03
2022-08-30T03:12:20.541Z,5.87
2022-08-30T03:14:50.900Z,6.20
2022-08-30T03:17:21.431Z,6.25
2022-08-30T03:19:51.874Z,6.45
2022-08-30T03:22:22.758Z,6.40
2022-08-30T03:24:53.047Z,5.95
2022-08-30T03:27:23.453Z,6.12
2022-08-30T03:29:53.874Z,6.05
2022-08-30T03:32:25.313Z,6.65
2022-08-30T03:34:55.745Z,5.72
2022-08-30T03:37:27.613Z,5.83
2022-08-30T03:39:58.560Z,6.20
2022-08-30T03:42:29.031Z,6.72
2022-08-30T03:45:01.108Z,6.35
2022-08-30T03:47:31.787Z,6.00
2022-08-30T03:50:02.882Z,5.83
2022-08-30T03:52:33.416Z,6.03
2022-08-30T03:55:04.005Z,5.55
2022-08-30T03:57:34.600Z,5.60
2022-08-30T04:00:07.639Z,5.72
2022-08-30T04:02:38.128Z,6.08
2022-08-30T04:05:10.561Z,6.58
2022-08-30T04:07:40.927Z,5.90
2022-08-30T04:10:12.612Z,6.40
2022-08-30T04:12:47.453Z,6.22
2022-08-30T04:15:17.018Z,6.53
2022-08-30T04:17:48.143Z,6.20
2022-08-30T04:20:18.650Z,6.10
2022-08-30T04:22:48.978Z,6.35
2022-08-30T04:25:19.733Z,5.25
2022-08-30T04:27:50.551Z,6.05
2022-08-30T04:30:21.420Z,6.17
2022-08-30T04:32:54.500Z,6.55
2022-08-30T04:35:24.029Z,5.92
2022-08-30T04:37:54.554Z,6.47
2022-08-30T04:40:25.050Z,6.90
2022-08-30T04:42:56.183Z,6.75
2022-08-30T04:45:28.248Z,6.87
2022-08-30T04:47:58.838Z,5.90
2022-08-30T04:50:29.266Z,7.30
2022-08-30T04:52:59.888Z,6.55
2022-08-30T04:55:30.414Z,6.90
2022-08-30T04:58:01.018Z,6.97
2022-08-30T05:00:31.958Z,6.65
2022-08-30T05:03:02.522Z,6.40
2022-08-30T05:05:42.528Z,6.58
2022-08-30T05:08:15.106Z,6.10
2022-08-30T05:10:49.088Z,6.35
2022-08-30T05:13:21.353Z,6.40
2022-08-30T05:15:54.294Z,6.10
2022-08-30T05:18:24.961Z,6.50
2022-08-30T05:21:07.638Z,6.25
2022-08-30T05:23:41.627Z,6.55
2022-08-30T05:26:15.297Z,6.42
2022-08-30T05:28:46.199Z,6.28
2022-08-30T05:31:19.779Z,6.05
2022-08-30T05:33:51.322Z,6.37
2022-08-30T05:36:24.570Z,6.42
2022-08-30T05:38:55.719Z,6.17
2022-08-30T05:41:27.229Z,5.72
2022-08-30T05:44:00.159Z,6.80
2022-08-30T05:49:08.253Z,6.10
2022-08-30T05:51:41.026Z,6.30
2022-08-30T05:54:13.430Z,5.92
2022-08-30T05:56:46.416Z,6.25
2022-08-30T05:59:17.040Z,6.60
2022-08-30T06:01:48.373Z,6.15
2022-08-30T06:04:18.935Z,6.10
2022-08-30T06:06:49.452Z,5.95
2022-08-30T06:09:20.165Z,5.97
2022-08-30T06:11:50.695Z,6.05
2022-08-30T06:14:21.223Z,6.35
2022-08-30T06:16:52.012Z,6.15
2022-08-30T06:19:23.234Z,6.30
2022-08-30T06:21:53.648Z,6.50
2022-08-30T06:24:35.697Z,5.78
2022-08-30T06:26:56.190Z,5.95
2022-08-30T06:29:26.542Z,6.37
2022-08-30T06:31:59.101Z,6.45
2022-08-30T06:34:30.208Z,7.08
2022-08-30T06:37:00.703Z,6.55
2022-08-30T06:39:31.263Z,6.25
2022-08-30T06:42:01.565Z,6.28
2022-08-30T06:44:31.993Z,6.62
2022-08-30T06:47:02.578Z,6.37
2022-08-30T06:49:32.984Z,6.20
2022-08-30T06:52:04.577Z,6.45
2022-08-30T06:54:36.020Z,7.10
2022-08-30T06:57:06.490Z,6.62
2022-08-30T06:59:37.054Z,6.47
2022-08-30T07:02:08.460Z,6.85
2022-08-30T07:04:38.767Z,6.67
2022-08-30T07:07:11.320Z,6.33
2022-08-30T07:09:43.569Z,7.05
2022-08-30T07:12:15.760Z,7.10
2022-08-30T07:14:46.062Z,7.87
2022-08-30T07:17:35.085Z,7.97
2022-08-30T07:20:07.298Z,7.55
2022-08-30T07:22:37.655Z,7.80
2022-08-30T07:25:08.236Z,7.17
2022-08-30T07:27:39.029Z,7.58
2022-08-30T07:30:10.590Z,7.90
2022-08-30T07:32:40.939Z,8.15
2022-08-30T07:35:11.361Z,7.72
2022-08-30T07:37:41.879Z,8.20
2022-08-30T07:40:14.331Z,8.88
2022-08-30T07:42:44.929Z,7.95
2022-08-30T07:45:15.256Z,8.05
2022-08-30T07:47:46.352Z,7.87
2022-08-30T07:50:16.842Z,7.87
2022-08-30T07:52:47.265Z,8.28
2022-08-30T07:55:17.624Z,8.25
2022-08-30T07:57:48.060Z,8.50
2022-08-30T08:00:18.731Z,7.60
2022-08-30T08:02:49.214Z,7.85
2022-08-30T08:05:23.124Z,8.05
2022-08-30T08:07:51.918Z,7.20
2022-08-30T08:10:22.623Z,6.67
2022-08-30T08:12:52.981Z,6.55
2022-08-30T08:15:26.334Z,6.53
2022-08-30T08:17:57.031Z,6.50
2022-08-30T08:20:27.660Z,6.10
2022-08-30T08:22:58.036Z,6.75
2022-08-30T08:25:29.376Z,6.35
2022-08-30T08:28:01.248Z,6.30
2022-08-30T08:30:34.675Z,5.90
2022-08-30T08:33:06.121Z,5.53
2022-08-30T08:35:36.490Z,5.83
2022-08-30T08:38:06.982Z,5.37
2022-08-30T08:40:43.584Z,5.58
2022-08-30T08:43:17.002Z,4.87
2022-08-30T08:46:02.465Z,10.90
2022-08-30T08:49:05.512Z,4.10
2022-08-30T08:51:43.483Z,4.20
2022-08-30T08:54:22.647Z,4.33
2022-08-30T08:56:53.998Z,4.12
2022-08-30T08:59:24.928Z,4.50
2022-08-30T09:02:02.140Z,4.15
2022-08-30T09:04:35.691Z,4.40
2022-08-30T09:07:12.222Z,4.40
2022-08-30T09:09:43.763Z,3.37
2022-08-30T09:12:14.824Z,3.02
2022-08-30T09:14:51.173Z,3.12
2022-08-30T09:17:24.510Z,2.12
2022-08-30T09:19:58.689Z,2.10
2022-08-30T09:22:38.161Z,2.02
2022-08-30T09:25:14.637Z,2.17
2022-08-30T09:27:47.487Z,2.17
2022-08-30T09:30:31.581Z,1.82
2022-08-30T09:33:05.519Z,1.72
2022-08-30T09:35:41.640Z,1.87
2022-08-30T09:38:14.768Z,1.85
2022-08-30T09:40:57.510Z,1.57
2022-08-30T09:43:33.786Z,1.70
2022-08-30T09:46:07.363Z,1.40
2022-08-30T09:48:44.160Z,1.45
2022-08-30T09:51:17.643Z,1.30
2022-08-30T09:54:17.698Z,1.42
2022-08-30T09:56:54.647Z,1.40
2022-08-30T09:59:34.070Z,1.30
2022-08-30T10:02:22.771Z,1.37
2022-08-30T10:04:59.228Z,1.05
2022-08-30T10:07:47.757Z,1.20
2022-08-30T10:10:33.014Z,1.40
2022-08-30T10:13:23.301Z,1.47
2022-08-30T10:16:02.600Z,1.60
2022-08-30T10:18:36.477Z,1.60
2022-08-30T10:21:19.176Z,1.50
2022-08-30T10:23:54.312Z,1.90
2022-08-30T10:26:27.917Z,1.72
2022-08-30T10:29:06.235Z,1.70
2022-08-30T10:31:48.742Z,1.80
2022-08-30T10:34:34.258Z,1.60
2022-08-30T10:37:13.945Z,1.70
2022-08-30T10:39:52.009Z,1.50
2022-08-30T10:42:26.740Z,1.50
2022-08-30T10:45:05.811Z,1.15
2022-08-30T10:47:41.889Z,1.35
2022-08-30T10:50:21.620Z,1.07
2022-08-30T10:53:10.055Z,1.15
2022-08-30T10:55:56.053Z,1.20
2022-08-30T10:58:26.602Z,1.00
2022-08-30T11:01:33.656Z,1.20
2022-08-30T11:04:18.681Z,1.40
2022-08-30T11:07:10.361Z,1.10
2022-08-30T11:10:18.429Z,1.10
2022-08-30T11:13:07.014Z,1.00
2022-08-30T11:15:40.376Z,1.12
2022-08-30T11:18:13.633Z,1.20
2022-08-30T11:20:47.376Z,1.30
2022-08-30T11:23:23.442Z,1.12
2022-08-30T11:26:01.833Z,1.20
2022-08-30T11:28:39.436Z,1.17
2022-08-30T11:31:12.474Z,1.12
2022-08-30T11:33:52.454Z,1.10
2022-08-30T11:36:37.697Z,1.40
2022-08-30T11:39:11.460Z,1.40
2022-08-30T11:41:47.797Z,1.20
2022-08-30T11:44:25.596Z,1.32
2022-08-30T11:47:05.599Z,1.47
2022-08-30T11:49:39.294Z,1.52
2022-08-30T11:52:35.980Z,1.50
2022-08-30T11:55:36.566Z,1.20
2022-08-30T11:58:28.359Z,1.40
2022-08-30T12:01:50.015Z,1.40
2022-08-30T12:04:01.248Z,1.15
2022-08-30T12:06:49.855Z,1.12
2022-08-30T12:09:30.261Z,1.30
2022-08-30T12:12:28.263Z,1.20
2022-08-30T12:15:00.341Z,8.70
2022-08-30T12:18:08.534Z,23.87
2022-08-30T12:20:50.187Z,1.55
2022-08-30T12:23:35.975Z,1.40
2022-08-30T12:26:13.828Z,1.30
2022-08-30T12:28:46.492Z,4.83
2022-08-30T12:31:20.066Z,1.30
2022-08-30T12:33:56.613Z,1.47
2022-08-30T12:36:39.498Z,1.60
2022-08-30T12:39:12.998Z,1.65
2022-08-30T12:41:44.487Z,2.47
2022-08-30T12:44:23.604Z,1.77
2022-08-30T12:46:59.623Z,1.57
2022-08-30T12:49:32.266Z,1.50
2022-08-30T12:52:31.627Z,1.67
2022-08-30T12:55:20.084Z,1.55
2022-08-30T12:58:00.860Z,1.90
2022-08-30T13:00:34.674Z,1.98
2022-08-30T13:03:16.268Z,1.80
2022-08-30T13:05:48.046Z,1.92
2022-08-30T13:08:22.414Z,2.35
2022-08-30T13:11:08.971Z,2.30
2022-08-30T13:13:45.342Z,2.30
2022-08-30T13:16:26.695Z,2.45
2022-08-30T13:19:18.197Z,2.55
2022-08-30T13:21:53.821Z,2.65
2022-08-30T13:24:25.757Z,2.77
2022-08-30T13:26:59.325Z,2.70
2022-08-30T13:29:31.939Z,2.80
2022-08-30T13:32:02.441Z,2.50
2022-08-30T13:34:34.608Z,2.60
2022-08-30T13:37:07.490Z,2.55
2022-08-30T13:39:40.776Z,3.70
2022-08-30T13:44:43.785Z,2.37
2022-08-30T13:49:48.065Z,2.65
2022-08-30T13:52:25.716Z,2.45
2022-08-30T13:54:58.093Z,2.30
2022-08-30T14:00:06.663Z,2.55
2022-08-30T14:02:44.346Z,2.37
2022-08-30T14:05:20.511Z,2.70
2022-08-30T14:07:42.270Z,2.60
2022-08-30T14:10:30.854Z,2.60
2022-08-30T14:12:57.439Z,2.52
2022-08-30T14:15:19.251Z,2.50
2022-08-30T14:17:49.753Z,2.70
2022-08-30T14:20:21.558Z,2.22
2022-08-30T14:22:52.164Z,2.15
2022-08-30T14:25:22.852Z,2.20
2022-08-30T14:27:53.256Z,1.82
2022-08-30T14:30:24.971Z,2.08
2022-08-30T14:32:55.680Z,2.10
2022-08-30T14:35:26.361Z,1.77
2022-08-30T14:37:58.557Z,2.17
2022-08-30T14:40:29.526Z,2.10
2022-08-30T14:43:00.352Z,3.55
2022-08-30T14:45:30.815Z,2.50
2022-08-30T14:48:02.950Z,2.40
2022-08-30T14:50:35.072Z,2.12
2022-08-30T14:53:06.554Z,2.60
2022-08-30T14:55:37.571Z,3.83
2022-08-30T14:58:10.150Z,3.17
2022-08-30T15:00:41.441Z,2.70
2022-08-30T15:03:15.483Z,3.27
2022-08-30T15:05:53.207Z,2.83
2022-08-30T15:08:23.790Z,3.00
2022-08-30T15:10:55.933Z,3.10
2022-08-30T15:13:27.540Z,2.95
2022-08-30T15:15:58.142Z,3.02
2022-08-30T15:18:28.677Z,2.95
2022-08-30T15:21:00.387Z,2.80
2022-08-30T15:23:30.901Z,2.80
2022-08-30T15:26:01.873Z,2.90
2022-08-30T15:28:32.370Z,3.00
2022-08-30T15:31:06.250Z,3.12
2022-08-30T15:33:34.960Z,3.25
2022-08-30T15:36:07.647Z,3.33
2022-08-30T15:38:38.215Z,3.08
2022-08-30T15:41:12.405Z,3.95
2022-08-30T15:43:42.936Z,3.02
2022-08-30T15:46:29.529Z,3.15
2022-08-30T15:49:05.614Z,2.80
2022-08-30T15:51:41.186Z,2.70
2022-08-30T15:54:13.331Z,2.95
2022-08-30T15:56:43.964Z,2.80
2022-08-30T15:59:17.483Z,2.70
2022-08-30T16:01:49.245Z,3.22
2022-08-30T16:04:19.739Z,3.92
2022-08-30T16:06:51.035Z,3.17
2022-08-30T16:09:23.616Z,2.60
2022-08-30T16:11:54.200Z,2.50
2022-08-30T16:14:25.768Z,2.30
2022-08-30T16:16:56.516Z,2.22
2022-08-30T16:19:27.430Z,2.60
2022-08-30T16:21:59.696Z,2.45
2022-08-30T16:24:30.068Z,2.70
2022-08-30T16:27:00.586Z,3.05
2022-08-30T16:29:31.179Z,2.67
2022-08-30T16:32:01.647Z,2.90
2022-08-30T16:34:33.401Z,2.83
2022-08-30T16:37:04.062Z,2.85
2022-08-30T16:39:35.036Z,2.70
2022-08-30T16:42:06.784Z,2.80
2022-08-30T16:44:37.325Z,2.60
2022-08-30T16:47:12.773Z,2.50
2022-08-30T16:49:42.691Z,2.40
2022-08-30T16:52:14.424Z,2.70
2022-08-30T16:54:45.136Z,2.72
2022-08-30T16:57:17.040Z,2.65
2022-08-30T16:59:49.561Z,2.40
2022-08-30T17:02:19.632Z,2.47
2022-08-30T17:04:53.089Z,2.67
2022-08-30T17:07:22.765Z,2.80
2022-08-30T17:09:53.332Z,2.60
2022-08-30T17:12:24.145Z,3.00
2022-08-30T17:14:54.589Z,2.80
2022-08-30T17:17:25.046Z,2.80
2022-08-30T17:19:55.515Z,2.72
2022-08-30T17:22:25.960Z,2.85
2022-08-30T17:24:56.691Z,2.58
2022-08-30T17:27:29.652Z,2.87
2022-08-30T17:30:00.361Z,2.70
2022-08-30T17:32:30.919Z,2.75
2022-08-30T17:35:01.649Z,2.92
2022-08-30T17:37:33.249Z,2.98
2022-08-30T17:40:06.429Z,2.95
2022-08-30T17:42:38.741Z,2.98
2022-08-30T17:45:12.141Z,3.08
2022-08-30T17:47:42.963Z,3.00
2022-08-30T17:50:14.555Z,2.52
2022-08-30T17:52:45.261Z,2.95
2022-08-30T17:55:15.750Z,2.92
2022-08-30T17:57:46.072Z,2.90
2022-08-30T18:00:16.904Z,2.92
2022-08-30T18:02:48.884Z,2.95
2022-08-30T18:05:24.404Z,2.90
2022-08-30T18:07:52.964Z,3.17
2022-08-30T18:10:30.506Z,3.55
2022-08-30T18:12:55.934Z,3.08
2022-08-30T18:15:26.543Z,3.45
2022-08-30T18:17:57.410Z,3.15
2022-08-30T18:20:28.138Z,3.05
2022-08-30T18:23:00.596Z,3.10
2022-08-30T18:25:31.127Z,2.75
2022-08-30T18:28:01.671Z,2.50
2022-08-30T18:33:06.670Z,2.75
2022-08-30T18:35:38.887Z,2.40
2022-08-30T18:38:11.193Z,2.50
2022-08-30T18:40:41.643Z,2.55
2022-08-30T18:43:12.685Z,2.47
2022-08-30T18:45:46.257Z,2.70
2022-08-30T18:48:19.444Z,2.40
2022-08-30T18:50:50.470Z,2.60
2022-08-30T18:53:28.752Z,2.47
2022-08-30T18:55:53.401Z,2.42
2022-08-30T18:58:25.398Z,2.47
2022-08-30T19:00:56.952Z,2.92
2022-08-30T19:03:27.661Z,3.02
2022-08-30T19:06:04.946Z,2.80
2022-08-30T19:08:36.630Z,2.60
2022-08-30T19:11:09.469Z,2.62
2022-08-30T19:13:40.242Z,2.98
2022-08-30T19:18:44.642Z,2.42
2022-08-30T19:21:15.248Z,2.55
2022-08-30T19:23:50.691Z,2.60
2022-08-30T19:26:19.757Z,2.90
2022-08-30T19:28:50.235Z,2.40
2022-08-30T19:31:23.082Z,3.10
2022-08-30T19:33:53.722Z,3.55
2022-08-30T19:36:24.531Z,2.52
2022-08-30T19:38:57.299Z,2.90
2022-08-30T19:41:28.356Z,2.92
2022-08-30T19:44:01.208Z,2.80
2022-08-30T19:46:32.671Z,2.62
2022-08-30T19:49:04.773Z,2.70
2022-08-30T19:51:35.146Z,2.55
2022-08-30T19:54:07.035Z,2.87
2022-08-30T19:56:38.451Z,3.25
2022-08-30T19:59:08.813Z,3.15
2022-08-30T20:01:41.186Z,3.35
2022-08-30T20:04:12.678Z,3.20
2022-08-30T20:06:44.764Z,2.95
2022-08-30T20:09:15.605Z,3.10
2022-08-30T20:11:52.525Z,3.20
2022-08-30T20:14:19.835Z,3.05
2022-08-30T20:16:51.964Z,2.80
2022-08-30T20:19:29.210Z,2.67
2022-08-30T20:21:54.649Z,3.35
2022-08-30T20:24:28.069Z,2.35
2022-08-30T20:24:28.291Z,2.60
2022-08-30T20:24:32.326Z,2.45
2022-08-30T20:26:59.192Z,2.85
2022-08-30T20:29:29.732Z,2.70
2022-08-30T20:32:01.619Z,2.92
2022-08-30T20:34:32.204Z,2.50
2022-08-30T20:37:02.594Z,2.22
2022-08-30T20:39:33.086Z,2.20
2022-08-30T20:42:04.780Z,2.40
2022-08-30T20:44:35.257Z,2.20
2022-08-30T20:47:07.152Z,2.20
2022-08-30T20:49:38.679Z,2.27
2022-08-30T20:52:09.753Z,2.20
2022-08-30T20:54:40.831Z,2.02
2022-08-30T20:57:11.801Z,2.37
2022-08-30T20:59:42.834Z,2.27
2022-08-30T21:02:13.325Z,2.20
2022-08-30T21:04:45.665Z,2.20
2022-08-30T21:07:16.398Z,2.30
2022-08-30T21:09:47.032Z,2.30
2022-08-30T21:12:17.433Z,2.00
2022-08-30T21:14:47.886Z,2.27
2022-08-30T21:17:18.595Z,2.00
2022-08-30T21:19:48.984Z,2.20
2022-08-30T21:22:19.404Z,2.10
2022-08-30T21:24:51.679Z,2.50
2022-08-30T21:27:22.146Z,2.42
2022-08-30T21:29:52.583Z,2.20
2022-08-30T21:32:22.995Z,2.30
2022-08-30T21:35:10.943Z,2.30
2022-08-30T21:37:41.393Z,2.12
2022-08-30T21:40:14.915Z,2.08
2022-08-30T21:42:46.063Z,2.08
2022-08-30T21:45:16.657Z,2.00
2022-08-30T21:47:47.269Z,1.77
2022-08-30T21:50:17.912Z,2.08
2022-08-30T21:52:48.405Z,1.80
2022-08-30T21:55:19.097Z,2.00
2022-08-30T21:57:49.811Z,1.90
2022-08-30T22:00:22.865Z,1.92
2022-08-30T22:02:53.505Z,2.00
2022-08-30T22:05:23.999Z,1.72
2022-08-30T22:07:54.511Z,2.08
2022-08-30T22:10:25.265Z,1.87
2022-08-30T22:12:55.865Z,1.87
2022-08-30T22:15:26.937Z,1.80
2022-08-30T22:17:57.498Z,2.10
2022-08-30T22:20:30.412Z,2.00
2022-08-30T22:23:00.234Z,1.60
2022-08-30T22:25:31.281Z,1.85
2022-08-30T22:28:01.711Z,1.85
2022-08-30T22:30:33.844Z,1.67
2022-08-30T22:33:04.284Z,1.82
2022-08-30T22:35:38.935Z,1.65
2022-08-30T22:38:10.180Z,1.55
2022-08-30T22:40:46.403Z,1.67
2022-08-30T22:43:17.676Z,1.60
2022-08-30T22:45:48.236Z,1.62
2022-08-30T22:48:18.927Z,1.75
2022-08-30T22:50:49.376Z,1.72
2022-08-30T22:53:20.123Z,1.70
2022-08-30T22:55:50.561Z,1.75
2022-08-30T22:58:20.980Z,1.95
2022-08-30T23:00:55.115Z,1.80
2022-08-30T23:03:24.186Z,1.80
2022-08-30T23:05:54.781Z,2.00
2022-08-30T23:08:25.860Z,1.80
2022-08-30T23:10:57.854Z,1.80
2022-08-30T23:13:28.376Z,2.08
2022-08-30T23:15:59.020Z,2.00
2022-08-30T23:18:31.179Z,1.75
2022-08-30T23:21:11.119Z,2.08
2022-08-30T23:24:02.089Z,1.80
2022-08-30T23:26:51.230Z,2.20
2022-08-30T23:29:39.084Z,1.90
2022-08-30T23:32:27.922Z,1.80
2022-08-30T23:35:16.341Z,1.70
2022-08-30T23:38:04.689Z,1.70
2022-08-30T23:40:53.465Z,1.60
2022-08-30T23:43:41.808Z,1.60
2022-08-30T23:46:31.510Z,1.90
2022-08-30T23:49:20.139Z,1.70
2022-08-30T23:52:08.220Z,1.90
2022-08-30T23:54:57.449Z,1.87
2022-08-30T23:57:46.714Z,1.72
